createdAt,value
2023-03-29T00:00:32.863Z,5.10
2023-03-29T00:05:35.141Z,5.14
2023-03-29T00:10:37.207Z,4.96
2023-03-29T00:15:38.578Z,4.91
2023-03-29T00:20:40.008Z,5.00
2023-03-29T00:25:41.453Z,4.81
2023-03-29T00:30:42.729Z,4.91
2023-03-29T00:35:44.041Z,4.97
2023-03-29T00:40:45.324Z,4.83
2023-03-29T00:45:46.588Z,4.95
2023-03-29T00:50:48.344Z,4.75
2023-03-29T00:55:49.685Z,4.93
2023-03-29T01:00:52.218Z,4.86
2023-03-29T01:05:53.469Z,5.07
2023-03-29T01:10:54.672Z,4.63
2023-03-29T01:15:55.957Z,4.46
2023-03-29T01:21:02.862Z,4.58
2023-03-29T01:26:04.176Z,4.55
2023-03-29T01:31:08.379Z,4.74
2023-03-29T01:36:09.653Z,4.70
2023-03-29T01:41:11.235Z,4.44
2023-03-29T01:46:12.709Z,4.29
2023-03-29T01:51:13.936Z,4.43
2023-03-29T01:56:15.148Z,4.66
2023-03-29T02:01:17.660Z,4.79
2023-03-29T02:06:19.121Z,4.98
2023-03-29T02:11:20.332Z,4.85
2023-03-29T02:16:21.666Z,4.71
2023-03-29T02:21:22.892Z,4.71
2023-03-29T02:26:24.609Z,4.53
2023-03-29T02:31:26.122Z,4.15
2023-03-29T02:36:28.258Z,4.26
2023-03-29T02:41:29.722Z,4.31
2023-03-29T02:46:31.466Z,3.96
2023-03-29T02:51:32.724Z,3.94
2023-03-29T02:56:33.948Z,4.02
2023-03-29T03:01:37.137Z,4.10
2023-03-29T03:06:38.428Z,4.31
2023-03-29T03:11:39.844Z,3.85
2023-03-29T03:16:41.706Z,3.87
2023-03-29T03:21:43.297Z,4.03
2023-03-29T03:26:46.344Z,3.94
2023-03-29T03:31:47.621Z,4.07
2023-03-29T03:36:48.956Z,3.94
2023-03-29T03:41:50.164Z,4.06
2023-03-29T03:46:51.464Z,3.68
2023-03-29T03:51:53.107Z,3.74
2023-03-29T03:56:54.356Z,3.96
2023-03-29T04:01:55.791Z,4.11
2023-03-29T04:07:02.618Z,3.85
2023-03-29T04:12:03.924Z,3.59
2023-03-29T04:17:05.721Z,3.74
2023-03-29T04:22:07.010Z,3.70
2023-03-29T04:27:08.264Z,3.91
2023-03-29T04:32:09.516Z,3.82
2023-03-29T04:37:10.798Z,3.79
2023-03-29T04:42:12.489Z,3.85
2023-03-29T04:47:13.812Z,3.95
2023-03-29T04:52:15.106Z,3.45
2023-03-29T04:57:17.188Z,3.68
2023-03-29T05:02:18.523Z,3.58
2023-03-29T05:07:19.869Z,3.20
2023-03-29T05:12:21.103Z,3.25
2023-03-29T05:17:22.466Z,3.43
2023-03-29T05:22:23.765Z,3.37
2023-03-29T05:27:25.515Z,3.50
2023-03-29T05:32:27.086Z,3.34
2023-03-29T05:37:28.615Z,3.07
2023-03-29T05:42:29.910Z,2.82
2023-03-29T05:47:31.711Z,2.90
2023-03-29T05:52:32.975Z,2.88
2023-03-29T05:57:34.182Z,2.98
2023-03-29T06:02:36.802Z,3.35
2023-03-29T06:07:38.422Z,3.01
2023-03-29T06:12:39.869Z,2.85
2023-03-29T06:17:41.195Z,3.16
2023-03-29T06:22:42.548Z,3.31
2023-03-29T06:27:43.818Z,3.47
2023-03-29T06:32:45.253Z,3.62
2023-03-29T06:37:49.992Z,3.08
2023-03-29T06:42:57.715Z,2.79
2023-03-29T06:47:59.247Z,2.75
2023-03-29T06:53:00.578Z,3.09
2023-03-29T06:58:02.866Z,3.26
2023-03-29T07:03:04.262Z,3.28
2023-03-29T07:08:05.514Z,3.05
2023-03-29T07:13:07.087Z,3.08
2023-03-29T07:18:08.513Z,3.14
2023-03-29T07:23:09.767Z,3.31
2023-03-29T07:28:11.279Z,3.32
2023-03-29T07:33:13.235Z,3.44
2023-03-29T07:38:15.539Z,3.65
2023-03-29T07:43:18.310Z,3.48
2023-03-29T07:48:19.710Z,3.85
2023-03-29T07:53:21.163Z,4.17
2023-03-29T07:58:22.536Z,3.99
2023-03-29T08:03:24.000Z,3.96
2023-03-29T08:08:25.432Z,3.75
2023-03-29T08:13:26.791Z,3.97
2023-03-29T08:18:28.384Z,4.03
2023-03-29T08:23:29.904Z,4.39
2023-03-29T08:28:31.155Z,4.22
2023-03-29T08:33:32.571Z,4.42
2023-03-29T08:38:33.810Z,4.35
2023-03-29T08:43:36.704Z,4.23
2023-03-29T08:48:38.045Z,4.53
2023-03-29T08:53:40.170Z,4.92
2023-03-29T08:58:41.557Z,5.14
2023-03-29T09:03:43.135Z,5.62
2023-03-29T09:08:44.492Z,5.42
2023-03-29T09:13:45.894Z,5.73
2023-03-29T09:18:47.553Z,5.93
2023-03-29T09:23:48.876Z,5.87
2023-03-29T09:28:50.108Z,6.13
2023-03-29T09:33:51.380Z,6.38
2023-03-29T09:38:54.429Z,6.56
2023-03-29T09:43:55.931Z,6.51
2023-03-29T09:48:57.243Z,6.64
2023-03-29T09:54:00.221Z,7.09
2023-03-29T09:59:01.486Z,7.14
2023-03-29T10:04:02.817Z,7.45
2023-03-29T10:09:04.708Z,7.81
2023-03-29T10:14:06.519Z,8.26
2023-03-29T10:19:07.799Z,8.35
2023-03-29T10:24:09.076Z,8.42
2023-03-29T10:29:10.349Z,8.46
2023-03-29T10:34:11.827Z,8.43
2023-03-29T10:39:13.174Z,8.61
2023-03-29T10:44:14.392Z,8.95
2023-03-29T10:49:15.652Z,8.81
2023-03-29T10:54:17.361Z,9.11
2023-03-29T10:59:18.765Z,9.46
2023-03-29T11:04:20.016Z,9.48
2023-03-29T11:09:21.216Z,9.35
2023-03-29T11:14:22.507Z,9.66
2023-03-29T11:19:23.894Z,10.00
2023-03-29T11:24:25.155Z,10.11
2023-03-29T11:29:27.162Z,11.48
2023-03-29T11:34:29.594Z,11.75
2023-03-29T11:39:30.898Z,10.95
2023-03-29T11:44:32.194Z,10.24
2023-03-29T11:49:33.426Z,10.04
2023-03-29T11:54:35.367Z,9.77
2023-03-29T11:59:36.611Z,9.57
2023-03-29T12:04:37.909Z,11.18
2023-03-29T12:09:39.472Z,10.87
2023-03-29T12:14:40.777Z,10.07
2023-03-29T12:19:43.670Z,9.75
2023-03-29T12:24:45.237Z,9.69
2023-03-29T12:29:46.618Z,9.98
2023-03-29T12:34:47.842Z,9.77
2023-03-29T12:39:49.255Z,9.99
2023-03-29T12:44:50.627Z,9.81
2023-03-29T12:49:51.954Z,9.78
2023-03-29T12:54:53.204Z,10.10
2023-03-29T12:59:54.993Z,10.19
2023-03-29T13:04:56.337Z,9.64
2023-03-29T13:09:57.689Z,10.04
2023-03-29T13:14:58.986Z,9.94
2023-03-29T13:20:00.853Z,10.15
2023-03-29T13:25:02.229Z,10.07
2023-03-29T13:30:04.526Z,10.11
2023-03-29T13:35:06.329Z,10.48
2023-03-29T13:40:07.686Z,10.61
2023-03-29T13:45:08.896Z,10.65
2023-03-29T13:50:10.246Z,10.96
2023-03-29T13:55:11.801Z,11.40
2023-03-29T14:00:15.488Z,11.20
2023-03-29T14:05:16.774Z,11.72
2023-03-29T14:10:17.977Z,12.21
2023-03-29T14:15:19.239Z,12.50
2023-03-29T14:20:21.003Z,12.40
2023-03-29T14:25:22.721Z,12.12
2023-03-29T14:30:24.123Z,11.32
2023-03-29T14:35:25.768Z,11.06
2023-03-29T14:40:27.795Z,11.15
2023-03-29T14:45:29.143Z,10.92
2023-03-29T14:50:30.962Z,11.04
2023-03-29T14:55:32.282Z,11.03
2023-03-29T15:00:35.029Z,11.25
2023-03-29T15:05:36.271Z,11.35
2023-03-29T15:10:37.558Z,11.29
2023-03-29T15:15:39.001Z,11.16
2023-03-29T15:20:40.832Z,11.23
2023-03-29T15:25:42.384Z,11.04
2023-03-29T15:30:45.073Z,11.21
2023-03-29T15:35:49.006Z,11.18
2023-03-29T15:40:50.563Z,11.64
2023-03-29T15:45:52.312Z,11.64
2023-03-29T15:50:53.636Z,12.09
2023-03-29T15:55:54.912Z,11.88
2023-03-29T16:00:56.368Z,11.76
2023-03-29T16:05:57.772Z,11.70
2023-03-29T16:10:59.042Z,11.54
2023-03-29T16:16:00.629Z,11.65
2023-03-29T16:21:01.946Z,11.79
2023-03-29T16:26:03.404Z,12.02
2023-03-29T16:31:05.087Z,12.02
2023-03-29T16:36:06.614Z,12.02
2023-03-29T16:41:08.207Z,12.09
2023-03-29T16:46:09.564Z,12.21
2023-03-29T16:51:10.818Z,11.98
2023-03-29T16:56:12.073Z,11.86
2023-03-29T17:01:13.461Z,11.81
2023-03-29T17:06:14.787Z,11.45
2023-03-29T17:11:16.255Z,11.12
2023-03-29T17:16:17.659Z,11.04
2023-03-29T17:21:19.048Z,10.79
2023-03-29T17:26:20.405Z,11.01
2023-03-29T17:31:21.833Z,10.94
2023-03-29T17:36:25.015Z,10.75
2023-03-29T17:41:28.580Z,10.59
2023-03-29T17:46:31.134Z,10.68
2023-03-29T17:51:32.434Z,10.68
2023-03-29T17:56:33.942Z,10.28
2023-03-29T18:01:37.052Z,10.06
2023-03-29T18:06:40.512Z,10.01
2023-03-29T18:11:42.141Z,10.01
2023-03-29T18:16:43.535Z,9.99
2023-03-29T18:21:44.818Z,10.30
2023-03-29T18:26:46.102Z,9.99
2023-03-29T18:31:47.663Z,9.98
2023-03-29T18:36:50.467Z,9.94
2023-03-29T18:41:51.969Z,10.27
2023-03-29T18:46:53.500Z,10.23
2023-03-29T18:51:55.485Z,10.24
2023-03-29T18:56:58.704Z,10.16
2023-03-29T19:02:00.708Z,10.24
2023-03-29T19:07:02.936Z,10.12
2023-03-29T19:12:04.149Z,9.91
2023-03-29T19:17:05.417Z,10.15
2023-03-29T19:22:06.673Z,10.33
2023-03-29T19:27:09.250Z,9.98
2023-03-29T19:32:12.008Z,9.41
2023-03-29T19:37:13.253Z,8.99
2023-03-29T19:42:15.600Z,9.56
2023-03-29T19:47:16.864Z,9.73
2023-03-29T19:52:18.197Z,9.32
2023-03-29T19:57:19.507Z,9.60
2023-03-29T20:02:20.944Z,9.67
2023-03-29T20:07:22.178Z,9.59
2023-03-29T20:12:23.503Z,9.90
2023-03-29T20:17:24.744Z,10.02
2023-03-29T20:22:30.684Z,9.63
2023-03-29T20:27:32.014Z,9.85
2023-03-29T20:32:35.893Z,9.53
2023-03-29T20:37:37.182Z,9.52
2023-03-29T20:42:38.763Z,9.59
2023-03-29T20:47:42.353Z,9.67
2023-03-29T20:52:43.977Z,9.62
2023-03-29T20:57:45.198Z,9.54
2023-03-29T21:02:46.781Z,9.47
2023-03-29T21:07:48.082Z,9.52
2023-03-29T21:12:49.871Z,9.52
2023-03-29T21:17:51.408Z,9.75
2023-03-29T21:22:52.759Z,9.31
2023-03-29T21:27:54.171Z,9.16
2023-03-29T21:32:55.474Z,9.14
2023-03-29T21:37:56.725Z,9.16
2023-03-29T21:42:57.963Z,9.16
2023-03-29T21:47:59.334Z,9.31
2023-03-29T21:53:01.740Z,9.41
2023-03-29T21:58:03.565Z,9.62
2023-03-29T22:03:04.814Z,9.61
2023-03-29T22:08:06.161Z,9.42
2023-03-29T22:13:08.232Z,9.30
2023-03-29T22:18:10.065Z,9.16
2023-03-29T22:23:11.383Z,9.23
2023-03-29T22:28:13.616Z,9.46
2023-03-29T22:33:14.880Z,9.41
2023-03-29T22:38:16.175Z,9.39
2023-03-29T22:43:17.466Z,9.37
2023-03-29T22:48:18.689Z,8.85
2023-03-29T22:53:19.954Z,8.82
2023-03-29T22:58:21.453Z,8.76
2023-03-29T23:03:23.318Z,8.34
2023-03-29T23:08:24.630Z,8.59
2023-03-29T23:13:28.670Z,8.61
2023-03-29T23:18:30.268Z,8.44
2023-03-29T23:23:31.589Z,8.35
2023-03-29T23:28:34.581Z,8.43
2023-03-29T23:33:36.149Z,8.68
2023-03-29T23:38:37.442Z,8.68
2023-03-29T23:43:40.440Z,8.56
2023-03-29T23:48:42.356Z,8.48
2023-03-29T23:53:43.673Z,8.63
2023-03-29T23:58:45.053Z,8.40
